createdAt,value
2023-01-29T00:02:09.514Z,43.05
2023-01-29T00:04:36.486Z,41.53
2023-01-29T00:07:03.291Z,41.50
2023-01-29T00:09:31.417Z,41.97
2023-01-29T00:11:58.300Z,44.50
2023-01-29T00:14:26.366Z,43.45
2023-01-29T00:16:53.421Z,44.38
2023-01-29T00:19:20.323Z,43.42
2023-01-29T00:21:47.170Z,44.08
2023-01-29T00:24:13.944Z,42.78
2023-01-29T00:26:42.416Z,42.05
2023-01-29T00:29:09.244Z,46.13
2023-01-29T00:31:36.210Z,46.08
2023-01-29T00:34:03.554Z,45.38
2023-01-29T00:36:30.388Z,46.35
2023-01-29T00:38:59.219Z,45.47
2023-01-29T00:41:49.902Z,44.50
2023-01-29T00:44:35.682Z,42.38
2023-01-29T00:47:04.294Z,43.90
2023-01-29T00:49:31.308Z,43.17
2023-01-29T00:52:16.211Z,43.47
2023-01-29T00:54:42.917Z,43.92
2023-01-29T00:57:09.871Z,44.05
2023-01-29T00:59:36.686Z,44.15
2023-01-29T01:02:22.512Z,47.60
2023-01-29T01:04:49.306Z,48.97
2023-01-29T01:07:16.171Z,44.90
2023-01-29T01:10:01.215Z,44.50
2023-01-29T01:12:28.538Z,43.75
2023-01-29T01:14:55.334Z,44.45
2023-01-29T01:17:22.238Z,43.33
2023-01-29T01:19:49.327Z,43.38
2023-01-29T01:22:16.718Z,43.83
2023-01-29T01:24:43.484Z,40.75
2023-01-29T01:27:10.264Z,41.92
2023-01-29T01:29:37.017Z,42.33
2023-01-29T01:32:03.996Z,41.78
2023-01-29T01:34:30.789Z,43.35
2023-01-29T01:36:57.797Z,43.35
2023-01-29T01:39:25.538Z,40.80
2023-01-29T01:41:56.229Z,45.22
2023-01-29T01:44:52.637Z,43.05
2023-01-29T01:47:30.967Z,43.00
2023-01-29T01:50:02.690Z,42.47
2023-01-29T01:52:31.856Z,47.47
2023-01-29T01:55:00.199Z,38.17
2023-01-29T01:57:28.684Z,43.22
2023-01-29T02:00:00.647Z,40.20
2023-01-29T02:02:46.679Z,41.38
2023-01-29T02:05:32.949Z,43.28
2023-01-29T02:08:18.460Z,42.13
2023-01-29T02:10:47.589Z,42.83
2023-01-29T02:13:18.598Z,42.30
2023-01-29T02:15:48.631Z,40.95
2023-01-29T02:18:17.770Z,43.70
2023-01-29T02:21:00.874Z,41.78
2023-01-29T02:23:56.738Z,43.33
2023-01-29T02:26:44.843Z,44.30
2023-01-29T02:29:27.187Z,47.08
2023-01-29T02:32:28.977Z,41.33
2023-01-29T02:35:32.767Z,42.63
2023-01-29T02:38:27.327Z,42.95
2023-01-29T02:41:22.418Z,45.47
2023-01-29T02:44:01.418Z,43.17
2023-01-29T02:46:47.665Z,45.58
2023-01-29T02:49:51.738Z,41.70
2023-01-29T02:52:25.375Z,40.75
2023-01-29T02:55:02.830Z,43.60
2023-01-29T02:57:36.123Z,45.78
2023-01-29T03:00:09.214Z,43.65
2023-01-29T03:02:48.825Z,46.70
2023-01-29T03:05:30.996Z,45.30
2023-01-29T03:08:04.491Z,44.00
2023-01-29T03:10:45.833Z,44.63
2023-01-29T03:13:34.297Z,45.88
2023-01-29T03:16:09.912Z,45.20
2023-01-29T03:18:57.586Z,41.63
2023-01-29T03:21:55.113Z,43.70
2023-01-29T03:24:57.500Z,44.20
2023-01-29T03:27:50.112Z,45.17
2023-01-29T03:30:36.885Z,44.88
2023-01-29T03:33:07.890Z,45.25
2023-01-29T03:35:58.544Z,48.22
2023-01-29T03:38:29.601Z,46.97
2023-01-29T03:41:01.132Z,47.10
2023-01-29T03:43:51.060Z,45.75
2023-01-29T03:46:36.984Z,44.58
2023-01-29T03:49:22.099Z,44.30
2023-01-29T03:52:13.945Z,49.53
2023-01-29T03:54:49.546Z,51.60
2023-01-29T03:57:41.178Z,48.08
2023-01-29T04:00:16.042Z,53.03
2023-01-29T04:03:17.117Z,55.40
2023-01-29T04:05:50.248Z,56.55
2023-01-29T04:08:26.063Z,55.55
2023-01-29T04:10:54.756Z,57.20
2023-01-29T04:13:23.383Z,55.63
2023-01-29T04:15:56.883Z,59.33
2023-01-29T04:18:26.613Z,59.53
2023-01-29T04:20:53.998Z,58.28
2023-01-29T04:23:26.244Z,59.65
2023-01-29T04:25:59.250Z,58.90
2023-01-29T04:28:42.912Z,62.35
2023-01-29T04:31:12.215Z,62.53
2023-01-29T04:33:58.896Z,62.70
2023-01-29T04:36:25.802Z,65.63
2023-01-29T04:39:26.555Z,58.80
2023-01-29T04:41:55.432Z,63.20
2023-01-29T04:44:44.884Z,66.47
2023-01-29T04:47:29.849Z,59.83
2023-01-29T04:50:06.163Z,63.28
2023-01-29T04:52:39.209Z,62.03
2023-01-29T04:55:32.813Z,67.18
2023-01-29T04:58:18.043Z,64.38
2023-01-29T05:03:16.228Z,64.15
2023-01-29T05:05:46.436Z,71.70
2023-01-29T05:08:16.242Z,67.10
2023-01-29T05:10:43.286Z,66.55
2023-01-29T05:13:13.566Z,69.57
2023-01-29T05:15:45.368Z,69.45
2023-01-29T05:18:12.543Z,73.65
2023-01-29T05:20:43.013Z,70.13
2023-01-29T05:23:21.856Z,70.38
2023-01-29T05:25:50.758Z,70.43
2023-01-29T05:28:17.896Z,71.57
2023-01-29T05:30:47.652Z,66.03
2023-01-29T05:33:29.591Z,65.60
2023-01-29T05:35:58.289Z,66.97
2023-01-29T05:38:25.645Z,66.22
2023-01-29T05:40:52.595Z,66.07
2023-01-29T05:43:24.461Z,66.10
2023-01-29T05:45:59.474Z,67.90
2023-01-29T05:48:29.013Z,66.63
2023-01-29T05:51:03.976Z,67.20
2023-01-29T05:56:01.479Z,65.68
2023-01-29T05:58:29.953Z,69.95
2023-01-29T06:00:56.854Z,71.82
2023-01-29T06:03:23.597Z,70.38
2023-01-29T06:05:50.433Z,74.13
2023-01-29T06:08:17.250Z,70.43
2023-01-29T06:10:43.968Z,70.53
2023-01-29T06:13:10.854Z,68.10
2023-01-29T06:15:40.037Z,69.22
2023-01-29T06:18:06.826Z,71.97
2023-01-29T06:20:33.569Z,70.18
2023-01-29T06:23:00.476Z,70.05
2023-01-29T06:25:27.245Z,72.85
2023-01-29T06:27:53.962Z,69.57
2023-01-29T06:30:20.740Z,71.53
2023-01-29T06:32:47.523Z,71.38
2023-01-29T06:35:14.585Z,73.38
2023-01-29T06:37:41.404Z,75.18
2023-01-29T06:40:09.066Z,70.68
2023-01-29T06:42:36.064Z,75.90
2023-01-29T06:45:02.938Z,73.10
2023-01-29T06:47:29.756Z,71.03
2023-01-29T06:49:56.530Z,75.32
2023-01-29T06:52:23.356Z,75.20
2023-01-29T06:54:50.088Z,78.53
2023-01-29T06:57:16.857Z,81.93
2023-01-29T06:59:43.590Z,77.10
2023-01-29T07:02:10.776Z,73.75
2023-01-29T07:04:37.887Z,81.38
2023-01-29T07:07:05.120Z,79.57
2023-01-29T07:09:32.067Z,79.03
2023-01-29T07:11:58.845Z,79.28
2023-01-29T07:14:25.588Z,84.10
2023-01-29T07:16:52.353Z,84.57
2023-01-29T07:19:19.146Z,84.72
2023-01-29T07:21:46.024Z,79.85
2023-01-29T07:24:12.986Z,80.75
2023-01-29T07:26:39.976Z,89.50
2023-01-29T07:29:06.812Z,84.38
2023-01-29T07:31:33.980Z,90.70
2023-01-29T07:34:00.866Z,83.35
2023-01-29T07:36:28.459Z,88.25
2023-01-29T07:38:55.437Z,91.20
2023-01-29T07:41:22.432Z,86.20
2023-01-29T07:43:49.279Z,86.88
2023-01-29T07:46:16.239Z,90.80
2023-01-29T07:48:43.024Z,93.60
2023-01-29T07:51:09.820Z,94.32
2023-01-29T07:53:37.075Z,87.40
2023-01-29T07:56:04.219Z,85.18
2023-01-29T07:58:31.096Z,85.38
2023-01-29T08:00:57.938Z,86.20
2023-01-29T08:03:24.822Z,83.97
2023-01-29T08:05:51.765Z,84.85
2023-01-29T08:08:19.448Z,80.47
2023-01-29T08:10:46.319Z,93.10
2023-01-29T08:13:13.163Z,85.20
2023-01-29T08:15:44.064Z,82.13
2023-01-29T08:18:10.893Z,88.85
2023-01-29T08:20:45.840Z,85.00
2023-01-29T08:23:16.312Z,88.65
2023-01-29T08:25:43.243Z,88.47
2023-01-29T08:28:11.742Z,91.82
2023-01-29T08:30:39.091Z,89.63
2023-01-29T08:33:06.094Z,83.13
2023-01-29T08:35:33.014Z,87.70
2023-01-29T08:38:03.342Z,89.95
2023-01-29T08:40:32.994Z,83.30
2023-01-29T08:43:02.248Z,85.32
2023-01-29T08:45:30.736Z,85.03
2023-01-29T08:47:57.806Z,85.43
2023-01-29T08:50:24.770Z,88.15
2023-01-29T08:52:52.175Z,86.80
2023-01-29T08:55:19.293Z,85.28
2023-01-29T08:57:46.282Z,87.78
2023-01-29T09:00:13.784Z,81.72
2023-01-29T09:02:40.601Z,82.80
2023-01-29T09:05:08.370Z,82.85
2023-01-29T09:07:35.139Z,82.07
2023-01-29T09:10:02.294Z,86.82
2023-01-29T09:12:29.041Z,75.07
2023-01-29T09:14:57.012Z,88.28
2023-01-29T09:17:24.177Z,84.25
2023-01-29T09:19:53.031Z,79.30
2023-01-29T09:22:20.575Z,78.60
2023-01-29T09:24:47.399Z,77.70
2023-01-29T09:27:14.266Z,81.60
2023-01-29T09:29:41.119Z,81.68
2023-01-29T09:32:08.102Z,79.50
2023-01-29T09:34:35.273Z,81.45
2023-01-29T09:37:02.079Z,81.18
2023-01-29T09:39:28.824Z,82.53
2023-01-29T09:42:15.130Z,80.00
2023-01-29T09:45:00.334Z,83.00
2023-01-29T09:50:01.767Z,77.45
2023-01-29T09:52:38.740Z,80.22
2023-01-29T09:55:26.606Z,77.97
2023-01-29T09:58:03.680Z,85.50
2023-01-29T10:00:34.402Z,83.80
2023-01-29T10:03:22.385Z,77.30
2023-01-29T10:05:55.067Z,79.80
2023-01-29T10:08:33.746Z,79.75
2023-01-29T10:11:24.414Z,83.53
2023-01-29T10:14:20.553Z,77.25
2023-01-29T10:17:17.842Z,79.38
2023-01-29T10:20:14.198Z,76.30
2023-01-29T10:23:00.525Z,78.43
2023-01-29T10:25:27.803Z,76.40
2023-01-29T10:27:58.140Z,79.18
2023-01-29T10:30:49.436Z,77.75
2023-01-29T10:33:54.231Z,77.70
2023-01-29T10:36:38.564Z,80.07
2023-01-29T10:39:05.463Z,80.22
2023-01-29T10:41:41.843Z,79.50
2023-01-29T10:44:28.852Z,73.75
2023-01-29T10:47:07.618Z,81.45
2023-01-29T10:49:40.607Z,75.32
2023-01-29T10:52:29.525Z,75.22
2023-01-29T10:54:56.262Z,73.63
2023-01-29T10:57:44.845Z,78.57
2023-01-29T11:00:22.347Z,80.07
2023-01-29T11:02:50.946Z,73.25
2023-01-29T11:05:43.866Z,75.30
2023-01-29T11:08:21.138Z,78.22
2023-01-29T11:11:13.503Z,76.45
2023-01-29T11:13:49.353Z,74.53
2023-01-29T11:16:16.237Z,76.50
2023-01-29T11:18:59.735Z,73.80
2023-01-29T11:21:28.067Z,78.93
2023-01-29T11:24:17.602Z,72.97
2023-01-29T11:26:48.004Z,77.18
2023-01-29T11:29:44.929Z,77.82
2023-01-29T11:32:32.790Z,73.90
2023-01-29T11:35:21.304Z,76.82
2023-01-29T11:37:48.638Z,79.95
2023-01-29T11:40:35.657Z,80.85
2023-01-29T11:43:21.464Z,79.63
2023-01-29T11:45:54.825Z,72.80
2023-01-29T11:48:25.606Z,77.25
2023-01-29T11:50:56.312Z,80.03
2023-01-29T11:53:33.818Z,78.88
2023-01-29T11:56:01.592Z,75.53
2023-01-29T11:58:32.867Z,73.93
2023-01-29T12:01:00.920Z,76.60
2023-01-29T12:03:48.968Z,74.75
2023-01-29T12:06:20.991Z,76.82
2023-01-29T12:08:56.127Z,73.20
2023-01-29T12:11:28.171Z,75.97
2023-01-29T12:13:57.385Z,70.15
2023-01-29T12:16:28.007Z,70.10
2023-01-29T12:18:56.955Z,74.18
2023-01-29T12:21:29.173Z,73.03
2023-01-29T12:24:40.440Z,69.30
2023-01-29T12:27:45.426Z,68.30
2023-01-29T12:30:21.380Z,72.95
2023-01-29T12:33:13.963Z,66.13
2023-01-29T12:36:04.063Z,66.57
2023-01-29T12:38:31.081Z,64.72
2023-01-29T12:41:07.845Z,65.97
2023-01-29T12:43:49.620Z,69.00
2023-01-29T12:46:28.018Z,65.82
2023-01-29T12:48:59.592Z,64.65
2023-01-29T12:51:33.822Z,71.57
2023-01-29T12:54:09.506Z,68.38
2023-01-29T12:56:41.123Z,64.50
2023-01-29T12:59:29.095Z,67.18
2023-01-29T13:02:05.985Z,66.50
2023-01-29T13:04:57.953Z,59.63
2023-01-29T13:07:41.209Z,65.95
2023-01-29T13:10:13.814Z,61.03
2023-01-29T13:12:50.636Z,59.15
2023-01-29T13:15:35.978Z,59.25
2023-01-29T13:20:39.608Z,59.38
2023-01-29T13:23:28.802Z,62.35
2023-01-29T13:25:55.849Z,53.47
2023-01-29T13:28:26.688Z,69.28
2023-01-29T13:31:21.515Z,60.70
2023-01-29T13:34:02.027Z,65.77
2023-01-29T13:36:30.947Z,58.80
2023-01-29T13:39:16.143Z,61.22
2023-01-29T13:41:43.713Z,58.97
2023-01-29T13:44:49.408Z,54.60
2023-01-29T13:47:28.398Z,63.65
2023-01-29T13:50:02.538Z,57.70
2023-01-29T13:52:44.677Z,60.53
2023-01-29T13:55:14.787Z,60.63
2023-01-29T13:57:44.828Z,59.10
2023-01-29T14:00:20.525Z,56.42
2023-01-29T14:03:05.503Z,55.95
2023-01-29T14:05:33.712Z,61.92
2023-01-29T14:08:00.439Z,60.25
2023-01-29T14:10:29.848Z,59.95
2023-01-29T14:13:23.772Z,61.30
2023-01-29T14:15:59.635Z,61.55
2023-01-29T14:18:28.380Z,59.88
2023-01-29T14:21:05.815Z,59.20
2023-01-29T14:23:43.066Z,57.45
2023-01-29T14:26:27.522Z,59.83
2023-01-29T14:28:58.666Z,52.43
2023-01-29T14:31:41.339Z,54.42
2023-01-29T14:34:20.699Z,58.78
2023-01-29T14:36:55.209Z,57.53
2023-01-29T14:39:36.954Z,60.58
2023-01-29T14:42:14.859Z,61.28
2023-01-29T14:44:44.718Z,67.80
2023-01-29T14:47:50.238Z,58.67
2023-01-29T14:50:29.105Z,47.25
2023-01-29T14:53:11.081Z,59.75
2023-01-29T14:56:00.099Z,61.95
2023-01-29T14:58:51.955Z,55.33
2023-01-29T15:01:38.283Z,58.63
2023-01-29T15:04:14.276Z,60.75
2023-01-29T15:06:45.928Z,62.35
2023-01-29T15:09:32.749Z,65.30
2023-01-29T15:12:14.600Z,62.88
2023-01-29T15:14:57.467Z,58.00
2023-01-29T15:17:43.466Z,63.08
2023-01-29T15:20:28.501Z,64.43
2023-01-29T15:22:55.751Z,60.13
2023-01-29T15:25:23.045Z,62.92
2023-01-29T15:27:50.316Z,64.65
2023-01-29T15:30:20.590Z,61.50
2023-01-29T15:32:49.049Z,64.15
2023-01-29T15:35:24.028Z,61.58
2023-01-29T15:41:01.492Z,61.65
2023-01-29T15:43:36.125Z,63.88
2023-01-29T15:46:37.091Z,63.15
2023-01-29T15:49:17.967Z,66.97
2023-01-29T15:51:46.640Z,68.35
2023-01-29T15:54:17.974Z,73.22
2023-01-29T15:56:48.640Z,67.30
2023-01-29T15:59:19.332Z,65.68
2023-01-29T16:01:46.582Z,69.53
2023-01-29T16:04:21.008Z,69.53
2023-01-29T16:06:49.896Z,71.47
2023-01-29T16:09:20.596Z,70.38
2023-01-29T16:11:48.339Z,69.80
2023-01-29T16:14:19.160Z,69.72
2023-01-29T16:16:48.518Z,71.07
2023-01-29T16:19:25.744Z,67.85
2023-01-29T16:22:00.062Z,72.05
2023-01-29T16:24:28.197Z,60.08
2023-01-29T16:27:01.044Z,65.88
2023-01-29T16:29:33.413Z,70.15
2023-01-29T16:32:02.761Z,71.47
2023-01-29T16:34:32.623Z,68.60
2023-01-29T16:37:01.954Z,66.85
2023-01-29T16:39:34.275Z,68.43
2023-01-29T16:42:10.747Z,66.18
2023-01-29T16:44:40.018Z,70.65
2023-01-29T16:47:20.612Z,75.00
2023-01-29T16:49:53.711Z,72.90
2023-01-29T16:52:55.159Z,69.88
2023-01-29T16:55:25.474Z,76.18
2023-01-29T16:57:56.074Z,68.07
2023-01-29T17:00:32.188Z,73.25
2023-01-29T17:03:06.492Z,74.80
2023-01-29T17:05:36.935Z,56.05
2023-01-29T17:08:07.176Z,69.32
2023-01-29T17:10:35.997Z,70.00
2023-01-29T17:13:08.547Z,79.70
2023-01-29T17:15:46.839Z,74.65
2023-01-29T17:18:25.092Z,68.30
2023-01-29T17:20:55.396Z,68.03
2023-01-29T17:23:23.225Z,67.78
2023-01-29T17:25:50.252Z,68.15
2023-01-29T17:28:18.471Z,64.70
2023-01-29T17:30:56.623Z,67.50
2023-01-29T17:33:32.058Z,66.68
2023-01-29T17:35:58.874Z,64.68
2023-01-29T17:38:26.867Z,65.38
2023-01-29T17:41:07.178Z,60.22
2023-01-29T17:43:34.790Z,71.25
2023-01-29T17:46:01.712Z,67.25
2023-01-29T17:48:31.265Z,69.15
2023-01-29T17:51:02.907Z,65.05
2023-01-29T17:53:44.146Z,72.18
2023-01-29T17:56:16.189Z,67.25
2023-01-29T17:58:43.227Z,71.85
2023-01-29T18:01:10.050Z,71.95
2023-01-29T18:03:37.029Z,73.22
2023-01-29T18:06:06.643Z,74.95
2023-01-29T18:08:35.899Z,73.88
2023-01-29T18:11:02.789Z,71.65
2023-01-29T18:13:29.848Z,73.43
2023-01-29T18:15:56.767Z,73.85
2023-01-29T18:18:24.873Z,74.57
2023-01-29T18:20:51.780Z,80.38
2023-01-29T18:23:18.701Z,80.15
2023-01-29T18:25:45.928Z,69.43
2023-01-29T18:28:17.692Z,75.38
2023-01-29T18:30:47.856Z,78.32
2023-01-29T18:33:19.204Z,80.65
2023-01-29T18:35:48.178Z,72.32
2023-01-29T18:38:15.650Z,71.60
2023-01-29T18:40:42.637Z,73.72
2023-01-29T18:43:09.903Z,76.25
2023-01-29T18:45:36.854Z,79.97
2023-01-29T18:48:03.752Z,73.80
2023-01-29T18:50:30.738Z,79.50
2023-01-29T18:52:57.708Z,77.40
2023-01-29T18:55:26.614Z,79.80
2023-01-29T18:58:26.488Z,71.68
2023-01-29T19:00:41.977Z,71.93
2023-01-29T19:03:09.655Z,71.13
2023-01-29T19:05:36.529Z,75.22
2023-01-29T19:08:05.265Z,80.35
2023-01-29T19:10:32.967Z,80.15
2023-01-29T19:13:00.153Z,73.65
2023-01-29T19:15:27.144Z,77.63
2023-01-29T19:17:54.195Z,71.95
2023-01-29T19:20:21.169Z,73.70
2023-01-29T19:22:48.671Z,75.65
2023-01-29T19:25:16.863Z,77.25
2023-01-29T19:27:44.240Z,76.68
2023-01-29T19:30:13.183Z,75.75
2023-01-29T19:32:40.711Z,74.40
2023-01-29T19:35:08.156Z,78.20
2023-01-29T19:37:35.270Z,72.43
2023-01-29T19:40:02.449Z,73.47
2023-01-29T19:42:29.593Z,74.95
2023-01-29T19:44:56.860Z,77.97
2023-01-29T19:47:23.841Z,80.85
2023-01-29T19:49:50.737Z,73.03
2023-01-29T19:52:49.900Z,79.55
2023-01-29T19:55:18.776Z,75.43
2023-01-29T19:57:46.656Z,74.47
2023-01-29T20:00:15.647Z,74.88
2023-01-29T20:02:42.860Z,70.68
2023-01-29T20:05:12.210Z,71.72
2023-01-29T20:07:41.336Z,71.88
2023-01-29T20:10:11.679Z,78.15
2023-01-29T20:12:39.272Z,88.10
2023-01-29T20:15:07.790Z,83.75
2023-01-29T20:17:35.116Z,73.50
2023-01-29T20:20:02.828Z,80.45
2023-01-29T20:22:30.189Z,74.93
2023-01-29T20:24:57.797Z,81.20
2023-01-29T20:27:24.968Z,81.32
2023-01-29T20:29:52.827Z,73.18
2023-01-29T20:32:20.333Z,80.47
2023-01-29T20:34:52.211Z,81.45
2023-01-29T20:37:19.867Z,83.30
2023-01-29T20:39:47.435Z,77.15
2023-01-29T20:42:15.175Z,76.95
2023-01-29T20:44:42.104Z,71.15
2023-01-29T20:47:09.260Z,78.90
2023-01-29T20:49:36.734Z,77.95
2023-01-29T20:52:03.547Z,79.95
2023-01-29T20:54:33.285Z,74.47
2023-01-29T20:57:00.439Z,71.63
2023-01-29T20:59:28.948Z,72.95
2023-01-29T21:01:56.226Z,80.68
2023-01-29T21:04:23.478Z,75.38
2023-01-29T21:06:50.434Z,70.88
2023-01-29T21:09:17.383Z,82.93
2023-01-29T21:11:45.285Z,74.18
2023-01-29T21:14:12.553Z,76.25
2023-01-29T21:16:39.939Z,76.63
2023-01-29T21:19:06.782Z,73.10
2023-01-29T21:21:34.805Z,78.47
2023-01-29T21:24:01.824Z,73.95
2023-01-29T21:26:29.129Z,72.97
2023-01-29T21:28:57.207Z,76.63
2023-01-29T21:31:24.221Z,77.55
2023-01-29T21:33:51.170Z,76.90
2023-01-29T21:36:18.399Z,78.93
2023-01-29T21:38:45.273Z,76.82
2023-01-29T21:41:12.388Z,79.20
2023-01-29T21:43:39.328Z,78.25
2023-01-29T21:46:14.160Z,84.55
2023-01-29T21:51:08.243Z,83.35
2023-01-29T21:53:36.694Z,78.93
2023-01-29T21:56:05.424Z,83.82
2023-01-29T21:58:32.341Z,96.28
2023-01-29T22:01:17.986Z,84.07
2023-01-29T22:03:47.493Z,87.78
2023-01-29T22:06:15.303Z,78.90
2023-01-29T22:08:42.147Z,80.97
2023-01-29T22:11:09.865Z,77.90
2023-01-29T22:13:36.818Z,80.45
2023-01-29T22:16:04.713Z,80.25
2023-01-29T22:18:31.811Z,81.30
2023-01-29T22:20:58.734Z,82.70
2023-01-29T22:23:25.514Z,79.57
2023-01-29T22:25:52.315Z,80.47
2023-01-29T22:28:19.145Z,78.65
2023-01-29T22:30:46.111Z,74.57
2023-01-29T22:33:13.198Z,78.78
2023-01-29T22:35:40.083Z,80.82
2023-01-29T22:38:07.436Z,80.13
2023-01-29T22:40:34.398Z,80.30
2023-01-29T22:43:01.347Z,83.45
2023-01-29T22:45:28.351Z,85.00
2023-01-29T22:47:55.391Z,82.38
2023-01-29T22:50:22.245Z,79.80
2023-01-29T22:52:54.027Z,81.63
2023-01-29T22:55:21.238Z,79.97
2023-01-29T22:57:53.544Z,80.78
2023-01-29T23:00:20.725Z,83.60
2023-01-29T23:02:48.267Z,86.40
2023-01-29T23:05:15.163Z,83.28
2023-01-29T23:07:42.014Z,81.65
2023-01-29T23:10:13.111Z,79.63
2023-01-29T23:12:40.085Z,84.43
2023-01-29T23:15:07.518Z,76.70
2023-01-29T23:17:34.667Z,81.65
2023-01-29T23:20:01.492Z,81.90
2023-01-29T23:22:28.339Z,85.97
2023-01-29T23:24:56.309Z,77.35
2023-01-29T23:27:23.124Z,84.07
2023-01-29T23:29:49.964Z,87.53
2023-01-29T23:32:21.180Z,81.00
2023-01-29T23:34:47.964Z,75.18
2023-01-29T23:37:14.812Z,78.72
2023-01-29T23:39:41.617Z,79.93
2023-01-29T23:42:08.542Z,76.93
2023-01-29T23:44:35.930Z,78.72
2023-01-29T23:47:02.767Z,71.07
2023-01-29T23:49:29.624Z,70.78
2023-01-29T23:51:56.355Z,76.40
2023-01-29T23:54:23.167Z,75.70
2023-01-29T23:56:49.913Z,73.55
2023-01-29T23:59:17.167Z,68.80
